Time;durP1;ratioP1;P1;durP2;ratioP2;P2;SDS_P1;SDS_P2;PMS_P1;PMS_P2;Temp;Humidity;BMP_temperature;BMP_pressure;BME280_temperature;BME280_humidity;BME280_pressure;Samples;Min_cycle;Max_cycle;Signal;HPM_P1;HPM_P2
2023/10/15 00:02:03;;;;;;;4.63;1.40;;;;;;;10.02;100.00;98337.94;5074271;28;20197;-74
2023/10/15 00:04:30;;;;;;;6.47;1.57;;;;;;;9.87;100.00;98340.00;5073314;28;20663;-74
2023/10/15 00:06:56;;;;;;;3.33;1.07;;;;;;;9.85;100.00;98351.84;5073154;28;20589;-74
2023/10/15 00:09:22;;;;;;;5.07;1.23;;;;;;;9.91;100.00;98335.09;5073533;28;20205;-74
2023/10/15 00:11:51;;;;;;;2.80;1.20;;;;;;;9.96;100.00;98333.44;5073500;28;20204;-74
2023/10/15 00:14:17;;;;;;;3.27;1.20;;;;;;;9.77;100.00;98330.84;5073581;28;20234;-74
2023/10/15 00:16:43;;;;;;;5.33;1.53;;;;;;;9.70;100.00;98332.69;5073501;28;20235;-74
2023/10/15 00:19:10;;;;;;;3.30;1.27;;;;;;;9.68;100.00;98340.06;5073315;28;20232;-74
2023/10/15 00:21:38;;;;;;;3.23;1.40;;;;;;;9.51;100.00;98328.22;5073999;28;20291;-74
2023/10/15 00:24:10;;;;;;;3.93;1.23;;;;;;;9.43;100.00;98326.59;5073165;28;20621;-74
2023/10/15 00:26:38;;;;;;;3.43;1.37;;;;;;;9.46;100.00;98326.16;5073500;28;20251;-74
2023/10/15 00:29:07;;;;;;;3.13;1.30;;;;;;;9.49;100.00;98331.06;5073452;28;20236;-74
2023/10/15 00:31:34;;;;;;;3.63;1.37;;;;;;;9.45;100.00;98329.00;5072658;28;20287;-74
2023/10/15 00:34:00;;;;;;;3.50;1.17;;;;;;;9.57;100.00;98332.69;5072988;28;20208;-74
2023/10/15 00:36:28;;;;;;;5.20;1.47;;;;;;;9.65;100.00;98330.63;5072989;28;20232;-74
2023/10/15 00:38:54;;;;;;;4.60;1.50;;;;;;;9.64;100.00;98338.81;5073103;28;20220;-74
2023/10/15 00:41:20;;;;;;;4.17;1.57;;;;;;;9.60;100.00;98337.59;5072941;28;20674;-74
2023/10/15 00:43:54;;;;;;;4.73;1.50;;;;;;;9.79;100.00;98339.41;5073277;28;20204;-74
2023/10/15 00:46:24;;;;;;;3.80;1.10;;;;;;;9.96;100.00;98337.94;5072907;28;20737;-74
2023/10/15 00:48:50;;;;;;;4.13;1.50;;;;;;;9.85;100.00;98319.97;5072740;28;20307;-74
2023/10/15 00:51:20;;;;;;;5.00;1.33;;;;;;;9.92;100.00;98324.25;5073227;28;20204;-74
2023/10/15 00:53:54;;;;;;;4.17;1.30;;;;;;;9.91;100.00;98324.47;5073132;28;20209;-74
2023/10/15 00:56:26;;;;;;;2.17;1.20;;;;;;;9.86;100.00;98311.00;5073259;28;20276;-74
2023/10/15 00:59:08;;;;;;;6.77;1.73;;;;;;;9.90;100.00;98317.50;5074811;28;20220;-74
2023/10/15 01:01:34;;;;;;;4.33;1.50;;;;;;;9.87;100.00;98312.63;5076340;28;20209;-74
2023/10/15 01:04:06;;;;;;;2.77;1.40;;;;;;;9.77;100.00;98309.59;5076707;28;20212;-74
2023/10/15 01:06:38;;;;;;;3.67;1.30;;;;;;;9.91;100.00;98317.31;5076765;28;20213;-74
2023/10/15 01:09:19;;;;;;;4.93;1.60;;;;;;;10.00;100.00;98313.41;5076420;28;20228;-74
2023/10/15 01:11:51;;;;;;;6.07;1.40;;;;;;;9.91;100.00;98306.69;5076691;28;20192;-74
2023/10/15 01:14:25;;;;;;;4.33;1.40;;;;;;;9.91;100.00;98306.69;5076664;28;20208;-74
2023/10/15 01:16:52;;;;;;;5.27;1.30;;;;;;;10.06;100.00;98303.81;5076616;28;20189;-74
2023/10/15 01:19:20;;;;;;;3.30;1.13;;;;;;;10.05;100.00;98302.19;5076141;28;20204;-74
2023/10/15 01:21:53;;;;;;;3.77;1.40;;;;;;;10.08;100.00;98307.06;5076424;28;20208;-74
2023/10/15 01:24:20;;;;;;;5.17;1.50;;;;;;;10.08;100.00;98305.25;5076608;28;20208;-74
2023/10/15 01:26:59;;;;;;;3.57;1.40;;;;;;;10.06;100.00;98301.16;5077096;28;20319;-74
2023/10/15 01:29:33;;;;;;;5.50;1.57;;;;;;;10.15;100.00;98302.56;5076493;28;20196;-74
2023/10/15 01:32:10;;;;;;;5.50;1.27;;;;;;;10.02;100.00;98298.09;5076367;28;20212;-74
2023/10/15 01:34:44;;;;;;;3.83;1.30;;;;;;;9.92;100.00;98299.56;5076123;28;20192;-74
2023/10/15 01:37:15;;;;;;;4.50;1.50;;;;;;;9.91;100.00;98305.88;5076179;28;20694;-74
2023/10/15 01:39:47;;;;;;;4.80;1.30;;;;;;;9.86;100.00;98305.72;5076158;28;20191;-74
2023/10/15 01:42:32;;;;;;;3.40;1.33;;;;;;;9.75;100.00;98299.19;5075854;28;20200;-74
2023/10/15 01:45:13;;;;;;;3.70;1.37;;;;;;;9.82;100.00;98304.47;5076054;28;20272;-74
2023/10/15 01:47:53;;;;;;;3.90;1.40;;;;;;;9.96;100.00;98303.44;5075842;28;20595;-74
2023/10/15 01:50:24;;;;;;;1.83;1.20;;;;;;;9.92;100.00;98305.66;5075774;28;20188;-74
2023/10/15 01:52:54;;;;;;;3.90;1.10;;;;;;;9.92;100.00;98315.47;5076817;28;20208;-74
2023/10/15 01:55:21;;;;;;;3.77;1.20;;;;;;;9.86;100.00;98305.72;5075933;28;20239;-74
2023/10/15 01:57:46;;;;;;;4.73;1.40;;;;;;;9.87;100.00;98308.13;5075840;28;20232;-74
2023/10/15 02:00:13;;;;;;;5.00;1.57;;;;;;;9.97;100.00;98315.66;5076145;28;20243;-74
2023/10/15 02:02:40;;;;;;;3.50;1.40;;;;;;;9.96;100.00;98311.38;5075737;28;20326;-74
2023/10/15 02:05:16;;;;;;;6.13;1.70;;;;;;;9.91;100.00;98306.69;5075620;28;20234;-74
2023/10/15 02:07:44;;;;;;;2.83;1.17;;;;;;;9.88;100.00;98307.13;5075929;28;20224;-74
2023/10/15 02:10:13;;;;;;;5.30;1.43;;;;;;;10.00;100.00;98299.31;5074426;28;20209;-74
2023/10/15 02:12:40;;;;;;;3.10;1.43;;;;;;;10.01;100.00;98309.72;5075235;28;20686;-74
2023/10/15 02:15:14;;;;;;;3.57;1.33;;;;;;;10.07;100.00;98303.63;5075131;28;20679;-74
2023/10/15 02:17:43;;;;;;;4.60;1.90;;;;;;;10.06;100.00;98295.84;5075406;28;20245;-74
2023/10/15 02:20:13;;;;;;;2.57;1.57;;;;;;;10.07;100.00;98294.81;5075437;28;20262;-74
2023/10/15 02:22:40;;;;;;;6.63;1.80;;;;;;;9.98;100.00;98286.25;5075554;28;20295;-74
2023/10/15 02:25:08;;;;;;;5.23;1.80;;;;;;;10.07;100.00;98284.19;5075309;28;20201;-74
2023/10/15 02:27:35;;;;;;;5.73;1.30;;;;;;;10.14;100.00;98282.34;5075027;28;20232;-74
2023/10/15 02:30:06;;;;;;;2.90;1.47;;;;;;;10.20;100.00;98286.81;5075091;28;20235;-74
2023/10/15 02:32:33;;;;;;;3.53;1.10;;;;;;;10.19;100.00;98279.88;5075142;28;20344;-74
2023/10/15 02:35:05;;;;;;;5.90;1.97;;;;;;;10.22;100.00;98280.25;5075110;28;20200;-74
2023/10/15 02:37:32;;;;;;;3.20;1.50;;;;;;;10.11;100.00;98286.25;5074920;28;20225;-74
2023/10/15 02:39:59;;;;;;;3.33;1.23;;;;;;;10.15;100.00;98284.81;5074845;28;20215;-74
2023/10/15 02:42:30;;;;;;;3.03;1.70;;;;;;;10.20;100.00;98282.31;5074858;28;20240;-74
2023/10/15 02:44:58;;;;;;;2.77;1.40;;;;;;;10.20;100.00;98284.16;5074853;28;20193;-74
2023/10/15 02:47:31;;;;;;;4.27;1.50;;;;;;;10.18;100.00;98278.25;5074644;28;20270;-74
2023/10/15 02:50:01;;;;;;;3.13;1.80;;;;;;;10.18;100.00;98275.59;5074437;28;20560;-74
2023/10/15 02:52:35;;;;;;;5.77;1.70;;;;;;;10.20;100.00;98277.00;5074779;28;20244;-74
2023/10/15 02:55:08;;;;;;;4.10;1.40;;;;;;;10.15;100.00;98279.50;5074876;28;20212;-74
2023/10/15 02:57:38;;;;;;;4.53;1.60;;;;;;;10.21;100.00;98277.81;5074180;28;20369;-74
2023/10/15 03:00:12;;;;;;;5.93;1.70;;;;;;;10.25;100.00;98287.00;5074476;28;20681;-74
2023/10/15 03:02:43;;;;;;;5.10;1.77;;;;;;;10.23;100.00;98286.41;5074503;28;20568;-74
2023/10/15 03:05:13;;;;;;;3.57;1.50;;;;;;;10.19;100.00;98285.19;5074165;28;20632;-74
2023/10/15 03:07:42;;;;;;;2.57;1.40;;;;;;;10.18;100.00;98279.03;5074491;28;20251;-74
2023/10/15 03:10:21;;;;;;;5.13;1.33;;;;;;;10.16;100.00;98278.44;5074269;28;20295;-74
2023/10/15 03:12:48;;;;;;;2.40;1.30;;;;;;;10.20;100.00;98281.50;5074462;28;20200;-74
2023/10/15 03:15:16;;;;;;;4.97;1.33;;;;;;;10.18;100.00;98272.94;5073937;28;20209;-74
2023/10/15 03:17:44;;;;;;;4.70;1.50;;;;;;;10.10;100.00;98273.97;5073970;28;20695;-74
2023/10/15 03:20:22;;;;;;;4.80;1.70;;;;;;;10.17;100.00;98281.91;5074321;28;20201;-74
2023/10/15 03:22:51;;;;;;;5.30;1.60;;;;;;;10.15;100.00;98283.97;5073974;28;20275;-74
2023/10/15 03:25:20;;;;;;;4.43;1.63;;;;;;;10.17;100.00;98280.06;5074026;28;20699;-74
2023/10/15 03:27:47;;;;;;;6.23;1.50;;;;;;;10.14;100.00;98282.34;5073918;28;20232;-74
2023/10/15 03:30:14;;;;;;;3.77;1.50;;;;;;;10.05;100.00;98268.47;5073758;28;20730;-74
2023/10/15 03:32:44;;;;;;;6.20;1.90;;;;;;;10.06;100.00;98272.78;5073703;28;20215;-74
2023/10/15 03:35:16;;;;;;;8.00;1.40;;;;;;;10.05;100.00;98273.78;5073514;28;20719;-74
2023/10/15 03:37:46;;;;;;;2.93;1.20;;;;;;;10.02;100.00;98268.88;5073819;28;20320;-74
2023/10/15 03:40:13;;;;;;;3.70;1.10;;;;;;;10.01;100.00;98275.19;5073441;28;20738;-74
2023/10/15 03:42:40;;;;;;;5.83;1.80;;;;;;;9.99;100.00;98279.91;5073674;28;20209;-74
2023/10/15 03:45:08;;;;;;;4.40;1.10;;;;;;;10.04;100.00;98282.78;5073481;28;20213;-74
2023/10/15 03:47:39;;;;;;;3.77;1.40;;;;;;;10.05;100.00;98283.59;5073608;28;20228;-74
2023/10/15 03:50:09;;;;;;;3.90;1.53;;;;;;;10.04;100.00;98282.78;5073722;28;20223;-74
2023/10/15 03:52:37;;;;;;;3.97;1.43;;;;;;;10.05;100.00;98281.75;5073942;28;20208;-74
2023/10/15 03:55:04;;;;;;;2.97;1.10;;;;;;;10.13;100.00;98280.69;5073221;28;20671;-74
2023/10/15 03:57:35;;;;;;;3.30;1.10;;;;;;;10.06;100.00;98285.22;5073555;28;20320;-74
2023/10/15 04:00:05;;;;;;;3.93;1.50;;;;;;;9.97;100.00;98291.78;5073493;28;20212;-74
2023/10/15 04:02:39;;;;;;;3.93;1.30;;;;;;;10.04;100.00;98277.47;5073696;28;20216;-74
2023/10/15 04:05:11;;;;;;;5.57;1.60;;;;;;;10.09;100.00;98275.00;5073369;28;20188;-74
2023/10/15 04:07:41;;;;;;;2.60;1.13;;;;;;;10.09;100.00;98269.69;5073172;28;20232;-74
2023/10/15 04:10:09;;;;;;;3.50;1.30;;;;;;;10.19;100.00;98280.66;5073556;28;20208;-74
2023/10/15 04:12:35;;;;;;;4.67;1.50;;;;;;;10.14;100.00;98279.69;5073920;28;20255;-74
2023/10/15 04:15:03;;;;;;;5.67;1.93;;;;;;;10.12;100.00;98279.91;5073536;28;20594;-74
2023/10/15 04:17:30;;;;;;;4.53;1.27;;;;;;;10.17;100.00;98281.91;5073387;28;20224;-74
2023/10/15 04:19:57;;;;;;;6.73;1.60;;;;;;;10.19;100.00;98287.84;5073544;28;20204;-74
2023/10/15 04:22:23;;;;;;;2.40;1.13;;;;;;;10.31;100.00;98280.81;5073202;28;20205;-74
2023/10/15 04:24:50;;;;;;;5.27;1.40;;;;;;;10.30;100.00;98285.34;5073489;28;20216;-74
2023/10/15 04:27:17;;;;;;;7.83;1.40;;;;;;;10.37;100.00;98278.13;5073086;28;20695;-74
2023/10/15 04:29:54;;;;;;;3.47;1.30;;;;;;;10.33;100.00;98286.75;5073410;28;20204;-74
2023/10/15 04:32:28;;;;;;;6.60;1.50;;;;;;;10.37;100.00;98280.78;5073225;28;20639;-74
2023/10/15 04:35:01;;;;;;;4.57;1.50;;;;;;;10.37;100.00;98280.00;5077037;28;20192;-74
2023/10/15 04:37:27;;;;;;;6.13;1.50;;;;;;;10.33;100.00;98278.78;5077252;28;20231;-74
2023/10/15 04:39:55;;;;;;;4.87;1.70;;;;;;;10.20;100.00;98282.31;5077857;28;20552;-74
2023/10/15 04:42:29;;;;;;;7.03;1.40;;;;;;;10.26;100.00;98275.31;5077273;28;20211;-74
2023/10/15 04:44:55;;;;;;;2.03;1.30;;;;;;;10.28;100.00;98282.06;5077500;28;20283;-74
2023/10/15 04:47:27;;;;;;;3.93;1.33;;;;;;;10.28;100.00;98282.06;5076632;28;20235;-74
2023/10/15 04:49:57;;;;;;;5.93;1.53;;;;;;;10.26;100.00;98285.97;5077126;28;20189;-74
2023/10/15 04:52:24;;;;;;;4.07;1.57;;;;;;;10.27;100.00;98288.41;5077078;28;20211;-74
2023/10/15 04:54:55;;;;;;;4.97;1.33;;;;;;;10.22;100.00;98290.06;5077483;28;20212;-74
2023/10/15 04:57:21;;;;;;;3.37;1.50;;;;;;;10.27;100.00;98287.63;5076108;28;20221;-74
2023/10/15 04:59:47;;;;;;;4.43;1.40;;;;;;;10.18;100.00;98280.91;5076812;28;20216;-74
2023/10/15 05:02:14;;;;;;;5.17;1.50;;;;;;;10.02;100.00;98281.31;5076677;28;20193;-74
2023/10/15 05:04:40;;;;;;;4.50;1.40;;;;;;;9.96;100.00;98285.63;5076330;28;20556;-74
2023/10/15 05:07:06;;;;;;;3.57;1.37;;;;;;;10.00;100.00;98281.53;5076585;28;20311;-74
2023/10/15 05:09:39;;;;;;;4.60;1.53;;;;;;;10.02;100.00;98287.47;5076266;28;20216;-74
2023/10/15 05:12:07;;;;;;;6.47;1.80;;;;;;;9.98;100.00;98290.75;5077206;28;20545;-74
2023/10/15 05:14:33;;;;;;;6.67;1.70;;;;;;;9.99;100.00;98292.38;5076554;28;20212;-74
2023/10/15 05:17:00;;;;;;;4.30;1.40;;;;;;;9.96;100.00;98292.81;5076529;28;20204;-74
2023/10/15 05:19:27;;;;;;;3.17;1.50;;;;;;;9.94;100.00;98298.31;5076376;28;20655;-74
2023/10/15 05:21:54;;;;;;;7.37;1.60;;;;;;;10.00;100.00;98291.38;5076573;28;20208;-74
2023/10/15 05:24:20;;;;;;;5.57;1.50;;;;;;;9.94;100.00;98303.63;5076420;28;20215;-74
2023/10/15 05:26:47;;;;;;;3.33;1.10;;;;;;;9.90;100.00;98297.09;5076357;28;20221;-74
2023/10/15 05:29:16;;;;;;;5.10;1.83;;;;;;;9.98;100.00;98298.69;5076283;28;20274;-74
2023/10/15 05:31:45;;;;;;;4.27;1.17;;;;;;;9.96;100.00;98287.50;5076352;28;20204;-74
2023/10/15 05:34:11;;;;;;;5.47;1.50;;;;;;;9.89;100.00;98294.66;5076315;28;20211;-74
2023/10/15 05:36:38;;;;;;;2.97;0.90;;;;;;;9.87;100.00;98291.41;5076213;28;20570;-74
2023/10/15 05:39:08;;;;;;;3.90;1.40;;;;;;;9.93;100.00;98295.88;5076026;28;20272;-74
2023/10/15 05:41:34;;;;;;;6.30;1.80;;;;;;;9.83;100.00;98298.94;5075685;28;20204;-74
2023/10/15 05:44:01;;;;;;;4.87;1.53;;;;;;;9.76;100.00;98295.50;5075649;28;20209;-74
2023/10/15 05:46:28;;;;;;;4.93;1.30;;;;;;;9.71;100.00;98303.28;5075782;28;20682;-74
2023/10/15 05:48:55;;;;;;;5.27;1.37;;;;;;;9.75;100.00;98304.50;5075970;28;20267;-74
2023/10/15 05:51:21;;;;;;;3.73;1.30;;;;;;;9.76;100.00;98315.91;5075968;28;20212;-74
2023/10/15 05:53:48;;;;;;;5.23;1.57;;;;;;;9.76;100.00;98330.00;5075648;28;20208;-74
2023/10/15 05:56:16;;;;;;;4.73;1.60;;;;;;;9.78;100.00;98327.97;5075516;28;20205;-74
2023/10/15 05:58:42;;;;;;;6.30;1.67;;;;;;;9.85;100.00;98325.28;5075726;28;20225;-74
2023/10/15 06:01:08;;;;;;;4.57;1.67;;;;;;;9.82;100.00;98323.88;5075227;28;20683;-74
2023/10/15 06:03:35;;;;;;;7.07;1.80;;;;;;;9.87;100.00;98328.56;5075630;28;20214;-74
2023/10/15 06:06:02;;;;;;;5.23;1.80;;;;;;;9.82;100.00;98326.53;5075677;28;20582;-74
2023/10/15 06:08:29;;;;;;;4.53;1.67;;;;;;;9.82;100.00;98331.03;5075249;28;20224;-74
2023/10/15 06:10:55;;;;;;;7.13;1.60;;;;;;;9.85;100.00;98325.28;5075437;28;20208;-74
2023/10/15 06:13:22;;;;;;;3.77;1.60;;;;;;;9.93;100.00;98327.72;5075501;28;20209;-74
2023/10/15 06:15:49;;;;;;;4.70;1.43;;;;;;;9.87;100.00;98337.34;5075408;28;20212;-74
2023/10/15 06:18:15;;;;;;;4.63;1.50;;;;;;;9.92;100.00;98331.41;5075284;28;20216;-74
2023/10/15 06:20:42;;;;;;;3.97;1.97;;;;;;;9.85;100.00;98338.56;5075287;28;20208;-74
2023/10/15 06:23:08;;;;;;;3.03;1.40;;;;;;;9.73;100.00;98342.91;5075352;28;20201;-74
2023/10/15 06:25:35;;;;;;;5.37;1.40;;;;;;;9.71;100.00;98344.94;5075491;28;20205;-74
2023/10/15 06:28:03;;;;;;;4.80;1.27;;;;;;;9.89;100.00;98347.75;5075085;28;20232;-74
2023/10/15 06:30:29;;;;;;;7.60;1.70;;;;;;;9.91;100.00;98341.22;5075320;28;20204;-74
2023/10/15 06:32:56;;;;;;;3.60;1.40;;;;;;;9.87;100.00;98345.31;5075162;28;20210;-74
2023/10/15 06:35:25;;;;;;;6.80;1.57;;;;;;;9.89;100.00;98350.41;5074622;28;20671;-74
2023/10/15 06:37:57;;;;;;;4.60;1.57;;;;;;;9.98;100.00;98349.16;5074908;28;20307;-74
2023/10/15 06:40:24;;;;;;;6.20;1.73;;;;;;;9.85;100.00;98347.38;5074951;28;20244;-74
2023/10/15 06:42:52;;;;;;;4.53;1.40;;;;;;;10.02;100.00;98351.22;5074922;28;20223;-74
2023/10/15 06:45:20;;;;;;;5.83;1.67;;;;;;;9.99;100.00;98354.28;5074954;28;20207;-74
2023/10/15 06:47:47;;;;;;;7.37;1.53;;;;;;;10.11;100.00;98362.44;5074247;28;20224;-74
2023/10/15 06:50:14;;;;;;;5.57;1.50;;;;;;;9.99;100.00;98377.34;5074598;28;20208;-74
2023/10/15 06:52:42;;;;;;;6.07;2.20;;;;;;;10.07;100.00;98378.00;5074590;28;20254;-74
2023/10/15 06:55:13;;;;;;;3.70;1.60;;;;;;;10.23;100.00;98369.56;5074572;28;20201;-74
2023/10/15 06:57:41;;;;;;;3.93;1.63;;;;;;;10.29;100.00;98365.25;5074107;28;20220;-74
2023/10/15 07:00:12;;;;;;;7.10;2.17;;;;;;;10.21;100.00;98376.13;5074321;28;20219;-74
2023/10/15 07:02:39;;;;;;;4.20;1.63;;;;;;;10.32;100.00;98378.94;5074520;28;20205;-74
2023/10/15 07:05:06;;;;;;;3.37;1.90;;;;;;;10.34;100.00;98376.91;5074490;28;20200;-74
2023/10/15 07:07:33;;;;;;;4.27;2.30;;;;;;;10.36;100.00;98382.03;5074203;28;20231;-74
2023/10/15 07:10:07;;;;;;;3.97;1.87;;;;;;;10.38;100.00;98383.44;5074383;28;20691;-74
2023/10/15 07:12:34;;;;;;;4.93;1.77;;;;;;;10.48;100.00;98377.66;5074388;28;20574;-74
2023/10/15 07:15:01;;;;;;;6.80;2.23;;;;;;;10.69;100.00;98380.84;5074191;28;20204;-74
2023/10/15 07:17:27;;;;;;;5.57;2.00;;;;;;;10.56;100.00;98383.56;5074201;28;20269;-74
2023/10/15 07:19:54;;;;;;;6.70;2.07;;;;;;;10.69;100.00;98383.50;5073839;28;20660;-74
2023/10/15 07:22:21;;;;;;;6.50;1.83;;;;;;;10.73;100.00;98387.38;5074024;28;20200;-74
2023/10/15 07:24:47;;;;;;;6.27;2.07;;;;;;;10.63;100.00;98384.34;5073803;28;20209;-74
2023/10/15 07:27:15;;;;;;;4.17;1.87;;;;;;;10.87;100.00;98396.91;5073892;28;20237;-74
2023/10/15 07:29:41;;;;;;;7.53;2.10;;;;;;;10.89;100.00;98399.38;5074045;28;20212;-74
2023/10/15 07:32:08;;;;;;;4.93;1.63;;;;;;;11.02;100.00;98394.81;5073588;28;20608;-74
2023/10/15 07:34:34;;;;;;;6.03;2.00;;;;;;;11.16;100.00;98394.72;5074014;28;20208;-74
2023/10/15 07:37:01;;;;;;;6.47;1.93;;;;;;;11.04;100.00;98403.38;5073890;28;20201;-74
2023/10/15 07:39:27;;;;;;;5.27;1.70;;;;;;;11.05;100.00;98405.00;5073831;28;20207;-74
2023/10/15 07:41:53;;;;;;;4.63;2.10;;;;;;;11.21;100.00;98392.25;5073811;28;20204;-74
2023/10/15 07:44:20;;;;;;;6.83;2.40;;;;;;;11.13;100.00;98402.09;5073745;28;20200;-74
2023/10/15 07:46:52;;;;;;;4.70;2.00;;;;;;;11.18;100.00;98409.44;5073266;28;20208;-74
2023/10/15 07:49:19;;;;;;;5.27;1.90;;;;;;;11.27;100.00;98397.53;5074017;28;20189;-74
2023/10/15 07:51:47;;;;;;;4.03;1.90;;;;;;;11.16;100.00;98413.34;5073904;28;20219;-74
2023/10/15 07:54:14;;;;;;;5.13;1.97;;;;;;;11.23;100.00;98414.13;5073674;28;20208;-74
2023/10/15 07:56:41;;;;;;;6.40;1.83;;;;;;;11.40;100.00;98412.59;5073931;28;20212;-74
2023/10/15 07:59:08;;;;;;;4.87;1.60;;;;;;;11.39;100.00;98419.75;5073605;28;20220;-74
2023/10/15 08:01:36;;;;;;;3.97;1.30;;;;;;;11.07;100.00;98415.44;5073396;28;20262;-74
2023/10/15 08:04:04;;;;;;;3.13;1.60;;;;;;;11.18;100.00;98417.44;5073404;28;20209;-74
2023/10/15 08:06:30;;;;;;;5.07;1.70;;;;;;;11.28;100.00;98415.13;5073292;28;20565;-74
2023/10/15 08:08:56;;;;;;;4.73;1.60;;;;;;;11.12;100.00;98412.94;5073389;28;20232;-74
2023/10/15 08:11:23;;;;;;;4.73;1.80;;;;;;;11.26;100.00;98417.16;5073257;28;20291;-74
2023/10/15 08:13:50;;;;;;;6.30;1.60;;;;;;;11.20;100.00;98415.38;5073600;28;20200;-74
2023/10/15 08:16:19;;;;;;;5.53;1.70;;;;;;;11.38;100.00;98419.94;5073849;28;20507;-74
2023/10/15 08:18:46;;;;;;;6.10;1.70;;;;;;;11.36;100.00;98416.69;5073438;28;20221;-74
2023/10/15 08:21:12;;;;;;;4.50;1.50;;;;;;;11.51;100.00;98412.69;5073679;28;20254;-74
2023/10/15 08:23:39;;;;;;;3.30;1.80;;;;;;;11.61;100.00;98418.38;5073211;28;20212;-74
2023/10/15 08:26:06;;;;;;;3.13;1.40;;;;;;;11.46;100.00;98411.72;5072690;28;20216;-74
2023/10/15 08:28:33;;;;;;;3.80;1.70;;;;;;;11.23;100.00;98420.28;5073164;28;20586;-74
2023/10/15 08:31:00;;;;;;;4.53;1.40;;;;;;;11.31;100.00;98421.84;5073434;28;20211;-74
2023/10/15 08:33:27;;;;;;;5.30;1.80;;;;;;;11.41;100.00;98409.72;5073573;28;20212;-74
2023/10/15 08:35:53;;;;;;;5.93;1.43;;;;;;;11.55;100.00;98421.91;5073433;28;20201;-74
2023/10/15 08:38:19;;;;;;;4.23;2.37;;;;;;;11.68;100.00;98429.00;5072875;28;20221;-74
2023/10/15 08:40:48;;;;;;;4.87;1.50;;;;;;;11.72;100.00;98409.72;5073577;28;20583;-74
2023/10/15 08:43:29;;;;;;;2.73;1.40;;;;;;;11.79;100.00;98410.47;5073310;28;20204;-74
2023/10/15 08:45:59;;;;;;;4.07;1.20;;;;;;;11.72;100.00;98411.56;5073787;28;20201;-74
2023/10/15 08:48:28;;;;;;;3.87;1.63;;;;;;;11.56;100.00;98417.38;5072854;28;20274;-74
2023/10/15 08:50:57;;;;;;;3.53;1.57;;;;;;;11.47;100.00;98423.97;5073115;28;20212;-74
2023/10/15 08:53:25;;;;;;;3.93;1.77;;;;;;;11.47;100.00;98427.47;5072985;28;20211;-74
2023/10/15 08:55:57;;;;;;;4.83;1.70;;;;;;;11.70;100.00;98425.06;5073083;28;20205;-74
2023/10/15 08:58:26;;;;;;;5.47;1.50;;;;;;;11.47;100.00;98442.63;5073310;28;20224;-74
2023/10/15 09:00:56;;;;;;;5.27;1.47;;;;;;;11.46;100.00;98420.53;5072646;28;20223;-74
2023/10/15 09:03:23;;;;;;;2.67;1.17;;;;;;;11.25;100.00;98433.38;5072898;28;20234;-74
2023/10/15 09:05:52;;;;;;;3.97;1.20;;;;;;;11.13;100.00;98431.38;5073516;28;20204;-74
2023/10/15 09:08:20;;;;;;;4.53;2.13;;;;;;;10.95;100.00;98427.78;5072436;28;20671;-74
2023/10/15 09:10:46;;;;;;;5.43;1.53;;;;;;;10.83;100.00;98421.50;5072870;28;20300;-74
2023/10/15 09:13:18;;;;;;;3.37;1.10;;;;;;;10.90;100.00;98439.06;5072718;28;20196;-74
2023/10/15 09:15:47;;;;;;;5.77;1.60;;;;;;;10.77;100.00;98447.09;5072967;28;20238;-74
2023/10/15 09:18:15;;;;;;;8.23;1.70;;;;;;;10.95;100.00;98443.75;5072561;28;20313;-74
2023/10/15 09:20:44;;;;;;;3.80;1.63;;;;;;;10.74;100.00;98441.38;5075639;28;20205;-74
2023/10/15 09:23:11;;;;;;;6.73;1.53;;;;;;;10.70;100.00;98453.47;5076473;28;20287;-74
2023/10/15 09:25:37;;;;;;;5.33;1.23;;;;;;;10.72;100.00;98451.41;5076423;28;20216;-74
2023/10/15 09:28:05;;;;;;;4.87;1.57;;;;;;;10.69;100.00;98455.28;5076159;28;20236;-74
2023/10/15 09:30:31;;;;;;;3.20;1.30;;;;;;;11.05;100.00;98447.56;5076373;28;20211;-74
2023/10/15 09:32:57;;;;;;;3.43;1.40;;;;;;;11.19;100.00;98449.13;5075879;28;20671;-74
2023/10/15 09:35:24;;;;;;;3.63;1.37;;;;;;;11.27;100.00;98445.44;5075817;28;20208;-74
2023/10/15 09:37:53;;;;;;;5.77;1.63;;;;;;;11.39;100.00;98454.34;5076139;28;20216;-74
2023/10/15 09:40:20;;;;;;;3.20;1.17;;;;;;;11.29;100.00;98467.31;5076019;28;20290;-74
2023/10/15 09:42:53;;;;;;;3.37;1.30;;;;;;;11.27;100.00;98463.22;5076095;28;20250;-74
2023/10/15 09:45:23;;;;;;;5.23;1.47;;;;;;;11.07;100.00;98467.84;5075674;28;20588;-74
2023/10/15 09:47:52;;;;;;;6.23;1.47;;;;;;;10.98;100.00;98461.94;5075882;28;20309;-74
2023/10/15 09:50:24;;;;;;;3.40;1.37;;;;;;;11.02;100.00;98466.63;5075843;28;20214;-74
2023/10/15 09:52:56;;;;;;;3.60;1.33;;;;;;;11.09;100.00;98461.28;5075698;28;20188;-74
2023/10/15 09:55:31;;;;;;;4.70;1.20;;;;;;;11.26;100.00;98464.28;5075742;28;20238;-74
2023/10/15 09:58:01;;;;;;;3.23;0.97;;;;;;;11.53;98.90;98465.75;5075717;28;20281;-74
2023/10/15 10:00:47;;;;;;;3.17;1.10;;;;;;;11.82;100.00;98452.66;5075771;28;20219;-74
2023/10/15 10:03:29;;;;;;;1.47;0.93;;;;;;;12.35;95.67;98448.47;5075643;28;20189;-74
2023/10/15 10:06:31;;;;;;;4.60;1.60;;;;;;;12.40;90.96;98448.66;5075378;28;20203;-74
2023/10/15 10:09:28;;;;;;;3.33;1.50;;;;;;;12.16;96.32;98454.81;5075269;28;20264;-74
2023/10/15 10:12:37;;;;;;;3.73;1.13;;;;;;;11.91;92.38;98451.34;5057928;28;20193;-74
2023/10/15 10:15:29;;;;;;;4.30;1.20;;;;;;;11.09;90.39;98471.94;5076235;28;20205;-74
2023/10/15 10:17:56;;;;;;;3.37;0.90;;;;;;;11.07;93.45;98466.81;5075376;28;20319;-74
2023/10/15 10:20:32;;;;;;;1.73;0.90;;;;;;;10.94;100.00;98450.91;5075195;28;20206;-74
2023/10/15 10:23:02;;;;;;;2.63;1.10;;;;;;;11.05;100.00;98457.41;5075971;28;20216;-74
2023/10/15 10:25:50;;;;;;;5.30;1.23;;;;;;;11.35;100.00;98447.81;5075239;28;20294;-74
2023/10/15 10:28:20;;;;;;;6.07;1.70;;;;;;;11.74;100.00;98436.94;5075067;28;20236;-74
2023/10/15 10:30:56;;;;;;;4.97;1.70;;;;;;;11.83;98.35;98451.63;5073842;28;20276;-74
2023/10/15 10:33:44;;;;;;;3.33;1.60;;;;;;;12.18;94.55;98449.25;5074735;28;20207;-75
2023/10/15 10:36:15;;;;;;;3.27;1.40;;;;;;;12.14;91.22;98440.91;5075081;28;20195;-74
2023/10/15 10:38:43;;;;;;;4.80;1.27;;;;;;;12.27;90.17;98438.09;5074925;28;20313;-74
2023/10/15 10:41:14;;;;;;;3.27;1.23;;;;;;;12.43;89.19;98444.72;5075091;28;20293;-75
2023/10/15 10:43:43;;;;;;;3.10;1.03;;;;;;;12.54;89.11;98442.13;5074904;28;20268;-74
2023/10/15 10:46:23;;;;;;;1.50;0.83;;;;;;;12.36;83.74;98452.78;5074578;28;20201;-74
2023/10/15 10:49:07;;;;;;;2.67;1.07;;;;;;;12.16;86.41;98451.34;5074239;28;20233;-74
2023/10/15 10:51:34;;;;;;;3.93;1.20;;;;;;;11.88;88.14;98456.28;5074026;28;20675;-74
2023/10/15 10:54:02;;;;;;;3.43;1.33;;;;;;;11.39;97.41;98448.22;5074331;28;20213;-74
2023/10/15 10:56:40;;;;;;;3.63;1.40;;;;;;;11.21;94.06;98458.78;5075241;28;20208;-74
2023/10/15 10:59:07;;;;;;;1.93;1.10;;;;;;;11.08;97.58;98464.94;5074548;28;20224;-74
2023/10/15 11:01:37;;;;;;;6.50;1.40;;;;;;;10.53;100.00;98457.59;5074186;28;20220;-74
2023/10/15 11:04:04;;;;;;;4.53;1.53;;;;;;;9.93;100.00;98452.56;5074392;28;20208;-73
2023/10/15 11:06:31;;;;;;;4.30;1.30;;;;;;;9.81;100.00;98460.31;5074441;28;20219;-73
2023/10/15 11:08:57;;;;;;;6.37;2.07;;;;;;;9.84;100.00;98438.69;5074096;28;20301;-73
2023/10/15 11:11:24;;;;;;;2.47;1.10;;;;;;;9.60;100.00;98444.56;5074422;28;20205;-73
2023/10/15 11:13:50;;;;;;;1.40;1.03;;;;;;;9.63;100.00;98430.91;5074353;28;20204;-73
2023/10/15 11:16:17;;;;;;;3.43;1.20;;;;;;;9.55;100.00;98433.75;5073908;28;20220;-74
2023/10/15 11:18:45;;;;;;;6.60;1.40;;;;;;;9.66;100.00;98432.34;5074115;28;20228;-74
2023/10/15 11:21:11;;;;;;;3.30;1.10;;;;;;;9.59;100.00;98437.63;5074197;28;20262;-74
2023/10/15 11:23:38;;;;;;;2.93;1.07;;;;;;;9.64;100.00;98440.50;5074183;28;20208;-73
2023/10/15 11:26:08;;;;;;;3.30;1.40;;;;;;;9.84;100.00;98429.88;5073742;28;20690;-73
2023/10/15 11:28:34;;;;;;;4.07;1.27;;;;;;;10.05;100.00;98443.00;5073849;28;20216;-73
2023/10/15 11:31:01;;;;;;;3.03;1.00;;;;;;;10.22;100.00;98444.16;5073824;28;20208;-73
2023/10/15 11:33:28;;;;;;;4.20;1.10;;;;;;;10.50;100.00;98442.88;5073718;28;20208;-73
2023/10/15 11:35:56;;;;;;;2.40;1.00;;;;;;;10.71;100.00;98447.94;5073748;28;20208;-73
2023/10/15 11:38:32;;;;;;;2.67;1.30;;;;;;;11.01;100.00;98440.25;5073592;28;20225;-73
2023/10/15 11:40:59;;;;;;;2.07;1.30;;;;;;;11.30;100.00;98439.66;5073724;28;20196;-73